Time;durP1;ratioP1;P1;durP2;ratioP2;P2;SDS_P1;SDS_P2;PMS_P1;PMS_P2;Temp;Humidity;BMP_temperature;BMP_pressure;BME280_temperature;BME280_humidity;BME280_pressure;Samples;Min_cycle;Max_cycle;Signal;HPM_P1;HPM_P2
2023/03/28 00:01:57;;;;;;;1.30;1.20;;;19.40;53.50;;;;;;5002300;28;20213;-70
2023/03/28 00:04:23;;;;;;;1.30;1.20;;;19.40;53.50;;;;;;4976977;28;20199;-69
2023/03/28 00:06:50;;;;;;;1.20;1.10;;;19.40;53.60;;;;;;4977744;28;20204;-69
2023/03/28 00:09:17;;;;;;;1.15;1.05;;;19.40;53.60;;;;;;4977421;28;20220;-69
2023/03/28 00:11:43;;;;;;;0.80;0.80;;;19.40;53.60;;;;;;4992608;28;20192;-69
2023/03/28 00:14:13;;;;;;;1.23;1.10;;;19.40;53.60;;;;;;5004978;28;20279;-69
2023/03/28 00:16:44;;;;;;;1.70;1.15;;;19.40;53.60;;;;;;4980962;28;20264;-69
2023/03/28 00:19:17;;;;;;;1.38;1.27;;;19.40;53.60;;;;;;5008866;28;20208;-69
2023/03/28 00:21:47;;;;;;;1.38;1.27;;;19.40;53.60;;;;;;4958556;28;20196;-69
2023/03/28 00:24:17;;;;;;;1.38;0.90;;;19.40;53.60;;;;;;5013653;28;20352;-69
2023/03/28 00:26:44;;;;;;;0.93;0.90;;;19.40;53.60;;;;;;4983178;28;20250;-69
2023/03/28 00:29:20;;;;;;;1.20;1.10;;;19.40;53.60;;;;;;4963018;28;20211;-71
2023/03/28 00:31:48;;;;;;;0.95;0.95;;;19.40;53.60;;;;;;4960840;28;20243;-69
2023/03/28 00:34:15;;;;;;;0.93;0.88;;;19.40;53.60;;;;;;4992361;28;20241;-69
2023/03/28 00:36:41;;;;;;;0.95;0.90;;;19.40;53.60;;;;;;4992705;28;20276;-70
2023/03/28 00:39:09;;;;;;;1.25;1.15;;;19.40;53.60;;;;;;4959929;28;20189;-69
2023/03/28 00:41:39;;;;;;;1.00;1.00;;;19.40;53.60;;;;;;4998541;28;20255;-71
2023/03/28 00:45:02;;;;;;;1.30;1.20;;;19.40;53.50;;;;;;4995622;28;20283;-69
2023/03/28 00:47:43;;;;;;;0.70;0.70;;;19.50;53.60;;;;;;4927512;29;20199;-69
2023/03/28 00:50:15;;;;;;;0.82;0.82;;;19.40;53.50;;;;;;4933096;29;20262;-69
2023/03/28 00:52:58;;;;;;;1.08;0.95;;;19.40;53.50;;;;;;4969176;28;20260;-69
2023/03/28 00:55:38;;;;;;;1.25;1.13;;;19.40;53.50;;;;;;4969516;28;20191;-69
2023/03/28 00:58:10;;;;;;;2.03;1.30;;;19.40;53.50;;;;;;4992164;28;20196;-69
2023/03/28 01:00:37;;;;;;;0.82;0.80;;;19.40;53.40;;;;;;4975765;28;20224;-69
2023/03/28 01:03:05;;;;;;;1.13;0.98;;;19.50;53.60;;;;;;4975932;28;20303;-69
2023/03/28 01:05:34;;;;;;;0.70;0.70;;;19.40;53.50;;;;;;4976294;28;20239;-69
2023/03/28 01:08:13;;;;;;;1.08;0.93;;;19.40;53.50;;;;;;4991961;28;20780;-69
2023/03/28 01:10:40;;;;;;;1.73;1.10;;;19.40;53.50;;;;;;4959472;28;20264;-69
2023/03/28 01:13:08;;;;;;;1.38;0.98;;;19.40;53.40;;;;;;4991779;28;20208;-69
2023/03/28 01:15:34;;;;;;;1.30;1.17;;;19.50;53.60;;;;;;4975882;28;20212;-69
2023/03/28 01:18:02;;;;;;;2.35;0.88;;;19.40;53.40;;;;;;4975879;28;20625;-69
2023/03/28 01:21:06;;;;;;;1.05;0.90;;;19.40;53.50;;;;;;4999912;28;20204;-69
2023/03/28 01:24:16;;;;;;;1.05;0.80;;;19.40;53.50;;;;;;4959871;28;20247;-69
2023/03/28 01:27:13;;;;;;;1.73;0.90;;;19.40;53.50;;;;;;4995475;28;20203;-69
2023/03/28 01:30:19;;;;;;;2.35;0.90;;;19.40;53.50;;;;;;4970331;28;20192;-69
2023/03/28 01:33:45;;;;;;;0.90;0.90;;;19.40;53.50;;;;;;4991813;28;20271;-69
2023/03/28 01:36:58;;;;;;;1.63;1.10;;;19.40;53.60;;;;;;4975132;28;20203;-69
2023/03/28 01:40:10;;;;;;;0.90;0.90;;;19.50;53.60;;;;;;4984367;28;20201;-69
2023/03/28 01:43:17;;;;;;;1.38;1.02;;;19.40;53.50;;;;;;4975193;28;20303;-69
2023/03/28 01:45:47;;;;;;;0.90;0.90;;;19.40;53.50;;;;;;4959381;28;20192;-69
2023/03/28 01:48:21;;;;;;;1.90;1.10;;;19.40;53.40;;;;;;4975168;28;20185;-69
2023/03/28 01:51:25;;;;;;;1.10;1.00;;;19.40;53.40;;;;;;4991602;28;20189;-69
2023/03/28 01:54:23;;;;;;;1.20;1.00;;;19.40;53.40;;;;;;4961227;28;20223;-69
2023/03/28 01:57:23;;;;;;;1.40;1.10;;;19.40;53.40;;;;;;4975113;28;20196;-69
2023/03/28 02:00:14;;;;;;;1.13;1.00;;;19.40;53.40;;;;;;4991098;28;20189;-69
2023/03/28 02:03:17;;;;;;;1.58;0.82;;;19.40;53.30;;;;;;4980747;28;20282;-69
2023/03/28 02:06:05;;;;;;;1.67;1.08;;;19.40;53.40;;;;;;4960942;28;20262;-69
2023/03/28 02:08:38;;;;;;;1.33;0.90;;;19.40;53.30;;;;;;4991030;28;20200;-69
2023/03/28 02:11:34;;;;;;;0.98;0.85;;;19.40;53.30;;;;;;4979122;28;20188;-69
2023/03/28 02:14:26;;;;;;;1.42;0.80;;;19.40;53.30;;;;;;4974874;28;20299;-69
2023/03/28 02:17:15;;;;;;;0.88;0.88;;;19.50;53.30;;;;;;4977211;28;20207;-69
2023/03/28 02:20:08;;;;;;;1.58;0.90;;;19.40;53.20;;;;;;4952859;28;20227;-69
2023/03/28 02:23:12;;;;;;;1.33;1.00;;;19.40;53.20;;;;;;4954859;28;20784;-69
2023/03/28 02:26:18;;;;;;;1.02;0.95;;;19.40;53.80;;;;;;4935156;29;20600;-69
2023/03/28 02:28:57;;;;;;;1.10;1.00;;;19.40;53.20;;;;;;4935849;29;20198;-69
2023/03/28 02:31:36;;;;;;;1.35;1.00;;;19.40;53.20;;;;;;4964963;28;20207;-70
2023/03/28 02:34:02;;;;;;;1.02;0.98;;;19.40;53.20;;;;;;4994474;28;20350;-69
2023/03/28 02:37:12;;;;;;;1.00;0.90;;;19.40;53.20;;;;;;4966378;28;20598;-69
2023/03/28 02:39:49;;;;;;;1.00;0.90;;;19.40;53.20;;;;;;4961438;28;20280;-69
2023/03/28 02:42:35;;;;;;;0.90;0.90;;;19.40;53.20;;;;;;4961726;28;20220;-69
2023/03/28 02:45:23;;;;;;;1.38;0.85;;;19.40;53.20;;;;;;4978405;28;20295;-69
2023/03/28 02:48:20;;;;;;;1.27;1.17;;;19.50;53.20;;;;;;4996045;28;20196;-68
2023/03/28 02:51:05;;;;;;;1.13;0.80;;;19.40;53.20;;;;;;4973764;28;20279;-71
2023/03/28 02:54:24;;;;;;;1.30;1.20;;;19.40;53.20;;;;;;4978082;28;20227;-69
2023/03/28 02:57:36;;;;;;;1.20;1.10;;;19.40;53.10;;;;;;4964821;28;20235;-69
2023/03/28 03:00:15;;;;;;;0.80;0.80;;;19.40;53.20;;;;;;4962156;28;20718;-69
2023/03/28 03:02:50;;;;;;;1.60;1.27;;;19.40;53.10;;;;;;5002783;28;20766;-69
2023/03/28 03:05:19;;;;;;;1.30;0.77;;;19.40;53.20;;;;;;4961988;28;20192;-69
2023/03/28 03:07:48;;;;;;;0.82;0.80;;;19.50;53.20;;;;;;4969939;28;20181;-69
2023/03/28 03:10:15;;;;;;;0.90;0.90;;;19.50;53.20;;;;;;4961654;28;20180;-69
2023/03/28 03:12:45;;;;;;;1.00;0.90;;;19.50;53.20;;;;;;4977846;28;20224;-70
2023/03/28 03:15:15;;;;;;;0.85;0.85;;;19.40;53.10;;;;;;4995885;28;20220;-70
2023/03/28 03:17:47;;;;;;;0.90;0.80;;;19.40;53.20;;;;;;4983564;28;20196;-69
2023/03/28 03:20:17;;;;;;;1.25;0.90;;;19.40;53.10;;;;;;4977692;28;20213;-69
2023/03/28 03:22:43;;;;;;;1.00;1.00;;;19.40;53.10;;;;;;4985721;28;20224;-68
2023/03/28 03:25:11;;;;;;;1.42;1.15;;;19.40;53.10;;;;;;4977545;28;20189;-69
2023/03/28 03:28:05;;;;;;;0.90;0.77;;;19.40;53.10;;;;;;4993756;28;20251;-69
2023/03/28 03:30:31;;;;;;;1.10;1.00;;;19.50;53.20;;;;;;4977716;28;20569;-69
2023/03/28 03:33:23;;;;;;;1.00;0.90;;;19.40;53.10;;;;;;4964567;28;20208;-69
2023/03/28 03:35:56;;;;;;;0.80;0.80;;;19.50;53.10;;;;;;4986085;28;20201;-69
2023/03/28 03:38:22;;;;;;;1.08;1.00;;;19.40;53.00;;;;;;4977254;28;20190;-69
2023/03/28 03:40:48;;;;;;;1.63;1.00;;;19.40;53.00;;;;;;4977756;28;20191;-69
2023/03/28 03:43:14;;;;;;;1.08;0.98;;;19.50;53.10;;;;;;4993234;28;20208;-69
2023/03/28 03:45:44;;;;;;;0.88;0.88;;;19.50;53.10;;;;;;4977594;28;20200;-69
2023/03/28 03:48:10;;;;;;;1.00;0.90;;;19.40;53.00;;;;;;4993585;28;20192;-70
2023/03/28 03:50:37;;;;;;;0.77;0.70;;;19.40;53.10;;;;;;4993440;28;20691;-69
2023/03/28 03:53:11;;;;;;;0.85;0.80;;;19.40;53.00;;;;;;4976856;28;20224;-70
2023/03/28 03:55:45;;;;;;;0.80;0.73;;;19.50;53.10;;;;;;4962062;28;20197;-69
2023/03/28 03:58:11;;;;;;;1.60;1.20;;;19.40;53.00;;;;;;4978754;28;20280;-69
2023/03/28 04:00:38;;;;;;;1.15;0.75;;;19.40;53.00;;;;;;4961041;28;20181;-69
2023/03/28 04:03:07;;;;;;;1.02;0.90;;;19.40;53.00;;;;;;4961235;28;20205;-70
2023/03/28 04:05:37;;;;;;;0.80;0.75;;;19.40;53.00;;;;;;4976943;28;20193;-70
2023/03/28 04:08:04;;;;;;;1.00;0.80;;;19.40;53.00;;;;;;4961222;28;20288;-69
2023/03/28 04:10:36;;;;;;;0.77;0.77;;;19.40;53.00;;;;;;4976566;28;20243;-70
2023/03/28 04:13:02;;;;;;;0.80;0.80;;;19.50;53.10;;;;;;4987839;28;20217;-69
2023/03/28 04:15:29;;;;;;;0.70;0.70;;;19.50;53.10;;;;;;4977139;28;20185;-70
2023/03/28 04:18:20;;;;;;;1.38;0.95;;;19.50;53.20;;;;;;4966065;28;20185;-70
2023/03/28 04:20:53;;;;;;;1.30;1.00;;;19.50;53.10;;;;;;4985657;28;20192;-70
2023/03/28 04:23:56;;;;;;;1.42;0.93;;;19.50;53.20;;;;;;4984001;28;20219;-69
2023/03/28 04:26:44;;;;;;;1.20;1.00;;;19.40;53.10;;;;;;4973895;28;20570;-69
2023/03/28 04:29:11;;;;;;;0.70;0.70;;;19.50;53.10;;;;;;4976550;28;20572;-68
2023/03/28 04:31:40;;;;;;;0.90;0.90;;;19.40;53.00;;;;;;4976803;28;20219;-69
2023/03/28 04:34:28;;;;;;;1.35;1.05;;;19.50;53.10;;;;;;4979090;28;20247;-69
2023/03/28 04:37:07;;;;;;;1.40;0.88;;;19.50;53.10;;;;;;4993579;28;20280;-69
2023/03/28 04:39:43;;;;;;;1.42;1.00;;;19.40;53.00;;;;;;5006069;28;20259;-70
2023/03/28 04:42:28;;;;;;;1.25;0.93;;;19.50;53.20;;;;;;4987433;28;20280;-69
2023/03/28 04:45:14;;;;;;;1.45;0.70;;;19.50;53.20;;;;;;4981630;28;20268;-69
2023/03/28 04:47:41;;;;;;;0.85;0.80;;;19.50;53.20;;;;;;5000907;28;20715;-72
2023/03/28 04:50:14;;;;;;;1.67;0.90;;;19.40;53.10;;;;;;4984649;28;20195;-70
2023/03/28 04:52:40;;;;;;;0.93;0.80;;;19.40;53.00;;;;;;4973309;28;20217;-67
2023/03/28 04:55:06;;;;;;;1.00;0.90;;;19.50;53.10;;;;;;4989708;28;20193;-70
2023/03/28 04:57:35;;;;;;;1.75;0.88;;;19.50;53.10;;;;;;4976813;28;20185;-70
2023/03/28 05:00:08;;;;;;;2.25;0.80;;;19.50;53.10;;;;;;4992763;28;20185;-69
2023/03/28 05:02:58;;;;;;;2.30;1.00;;;19.50;53.10;;;;;;4979195;28;20287;-70
2023/03/28 05:05:26;;;;;;;2.25;0.90;;;19.50;53.20;;;;;;4991324;28;20243;-70
2023/03/28 05:07:52;;;;;;;1.38;1.00;;;19.40;53.00;;;;;;4976573;28;20213;-70
2023/03/28 05:10:20;;;;;;;1.25;1.00;;;19.40;53.00;;;;;;4968191;28;20195;-69
2023/03/28 05:12:47;;;;;;;1.10;1.00;;;19.50;53.20;;;;;;4983007;28;20220;-69
2023/03/28 05:15:15;;;;;;;0.90;0.77;;;19.50;53.10;;;;;;4997065;28;20193;-70
2023/03/28 05:17:51;;;;;;;1.40;0.88;;;19.40;53.00;;;;;;4956476;28;20189;-70
2023/03/28 05:20:28;;;;;;;1.13;0.80;;;19.40;53.00;;;;;;4957405;28;20228;-69
2023/03/28 05:22:56;;;;;;;1.00;0.90;;;19.50;53.10;;;;;;4954929;28;20208;-68
2023/03/28 05:25:23;;;;;;;1.45;1.13;;;19.50;53.10;;;;;;4995259;28;20242;-70
2023/03/28 05:27:50;;;;;;;1.25;0.90;;;19.50;53.00;;;;;;4980790;28;20193;-70
2023/03/28 05:30:16;;;;;;;1.52;0.82;;;19.40;52.90;;;;;;4984998;28;20195;-68
2023/03/28 05:32:42;;;;;;;1.08;0.90;;;19.40;52.90;;;;;;4975127;28;20263;-70
2023/03/28 05:35:13;;;;;;;1.30;0.82;;;19.50;53.00;;;;;;4974980;28;20189;-70
2023/03/28 05:37:39;;;;;;;1.65;1.00;;;19.50;53.00;;;;;;4975385;28;20262;-70
2023/03/28 05:40:07;;;;;;;2.25;1.00;;;19.50;53.00;;;;;;4975051;28;20192;-69
2023/03/28 05:42:37;;;;;;;1.20;1.10;;;19.50;53.00;;;;;;4959383;28;20264;-70
2023/03/28 05:45:11;;;;;;;2.67;1.08;;;19.50;53.00;;;;;;4957085;28;20188;-70
2023/03/28 05:47:54;;;;;;;1.17;1.00;;;19.50;52.90;;;;;;4969343;28;20203;-70
2023/03/28 05:50:21;;;;;;;1.40;0.90;;;19.50;52.90;;;;;;4974860;28;20189;-69
2023/03/28 05:52:46;;;;;;;2.08;1.17;;;19.50;53.00;;;;;;5012716;22;20227;-70
2023/03/28 05:55:13;;;;;;;1.45;0.93;;;19.50;53.00;;;;;;5002367;28;20219;-70
2023/03/28 05:57:39;;;;;;;1.25;1.15;;;19.50;52.90;;;;;;5005106;28;20642;-70
2023/03/28 06:00:09;;;;;;;2.05;1.08;;;19.50;52.90;;;;;;5005808;28;20210;-70
2023/03/28 06:02:44;;;;;;;2.08;0.93;;;19.50;52.80;;;;;;5002720;28;20219;-70
2023/03/28 06:05:12;;;;;;;1.77;1.02;;;19.50;52.90;;;;;;4977868;28;20195;-70
2023/03/28 06:07:38;;;;;;;2.28;1.33;;;19.50;52.80;;;;;;4994219;28;20184;-70
2023/03/28 06:10:07;;;;;;;1.13;0.90;;;19.50;52.80;;;;;;4978108;28;20279;-70
2023/03/28 06:12:35;;;;;;;2.40;1.13;;;19.50;52.80;;;;;;4978361;28;20207;-70
2023/03/28 06:15:01;;;;;;;1.20;0.90;;;19.50;52.80;;;;;;4963592;28;20666;-70
2023/03/28 06:17:32;;;;;;;3.20;1.50;;;19.50;52.80;;;;;;4983987;28;20192;-70
2023/03/28 06:19:59;;;;;;;1.38;1.23;;;19.50;52.80;;;;;;4971206;28;20184;-70
2023/03/28 06:22:25;;;;;;;2.22;1.13;;;19.50;52.80;;;;;;4980428;28;20240;-70
2023/03/28 06:24:56;;;;;;;1.95;0.98;;;19.50;52.80;;;;;;4974606;28;20200;-70
2023/03/28 06:27:28;;;;;;;0.98;0.90;;;19.50;52.80;;;;;;4982006;28;20191;-70
2023/03/28 06:29:54;;;;;;;1.40;1.10;;;19.50;52.80;;;;;;4979291;28;20190;-70
2023/03/28 06:32:21;;;;;;;2.30;1.00;;;19.50;52.80;;;;;;5006818;28;20710;-70
2023/03/28 06:34:46;;;;;;;1.52;1.17;;;19.50;52.80;;;;;;4969508;28;20207;-71
2023/03/28 06:37:12;;;;;;;0.90;0.90;;;19.50;52.80;;;;;;4977725;28;20246;-72
2023/03/28 06:39:54;;;;;;;1.20;1.10;;;19.60;52.80;;;;;;4979645;28;20187;-71
2023/03/28 06:42:20;;;;;;;1.05;0.93;;;19.60;52.80;;;;;;4977643;28;20212;-71
2023/03/28 06:44:56;;;;;;;2.10;1.10;;;19.60;52.80;;;;;;4985901;28;20241;-71
2023/03/28 06:47:36;;;;;;;2.65;1.00;;;19.60;52.70;;;;;;4993970;28;20191;-71
2023/03/28 06:50:02;;;;;;;1.48;1.08;;;19.60;52.70;;;;;;4977724;28;20565;-72
2023/03/28 06:52:37;;;;;;;2.30;1.10;;;19.60;52.70;;;;;;4985827;28;20239;-71
2023/03/28 06:55:06;;;;;;;1.67;1.20;;;19.60;52.70;;;;;;4978000;28;20235;-72
2023/03/28 06:57:32;;;;;;;1.33;1.00;;;19.60;52.70;;;;;;4993918;28;20188;-71
2023/03/28 07:00:10;;;;;;;1.30;1.13;;;19.70;52.70;;;;;;4979273;28;20180;-71
2023/03/28 07:03:08;;;;;;;2.13;1.08;;;19.60;52.60;;;;;;4972437;28;20263;-71
2023/03/28 07:05:41;;;;;;;1.55;1.20;;;19.70;52.70;;;;;;4970279;28;20295;-71
2023/03/28 07:08:09;;;;;;;1.13;1.02;;;19.60;52.70;;;;;;4986320;28;20243;-72
2023/03/28 07:10:37;;;;;;;1.50;1.20;;;19.70;52.60;;;;;;4988813;28;20218;-71
2023/03/28 07:13:03;;;;;;;1.85;1.30;;;19.70;52.60;;;;;;4990265;28;20220;-71
2023/03/28 07:15:29;;;;;;;1.30;1.20;;;19.70;52.60;;;;;;4985779;28;20239;-71
2023/03/28 07:17:55;;;;;;;1.70;1.10;;;19.70;52.50;;;;;;5002407;28;20193;-71
2023/03/28 07:20:22;;;;;;;1.27;1.17;;;19.80;52.50;;;;;;4986962;28;20219;-71
2023/03/28 07:22:49;;;;;;;1.85;1.10;;;19.80;52.50;;;;;;4983855;28;20213;-71
2023/03/28 07:25:15;;;;;;;1.27;1.02;;;19.80;52.50;;;;;;4986414;28;20188;-72
2023/03/28 07:27:44;;;;;;;1.77;1.10;;;19.70;52.50;;;;;;4970032;28;20259;-72
2023/03/28 07:30:13;;;;;;;1.23;1.13;;;19.80;52.50;;;;;;5011033;28;20184;-71
2023/03/28 07:32:39;;;;;;;1.10;1.00;;;19.80;52.50;;;;;;4977194;28;20244;-71
2023/03/28 07:35:07;;;;;;;1.65;1.00;;;19.80;52.40;;;;;;4992358;28;20220;-71
2023/03/28 07:37:39;;;;;;;1.30;1.05;;;19.80;52.40;;;;;;4994227;28;20185;-72
2023/03/28 07:40:27;;;;;;;1.77;1.27;;;19.80;52.50;;;;;;4989723;28;20227;-72
2023/03/28 07:42:53;;;;;;;1.77;1.20;;;19.80;52.50;;;;;;4967165;28;20228;-72
2023/03/28 07:45:19;;;;;;;1.95;1.35;;;19.90;52.40;;;;;;4969077;28;20197;-71
2023/03/28 07:47:45;;;;;;;1.92;1.13;;;19.90;52.30;;;;;;4980796;28;20217;-71
2023/03/28 07:50:11;;;;;;;1.77;1.10;;;19.90;52.20;;;;;;4973789;28;20629;-72
2023/03/28 07:52:43;;;;;;;1.00;0.93;;;19.90;52.30;;;;;;4996168;28;20222;-72
2023/03/28 07:55:08;;;;;;;1.58;1.00;;;20.00;52.40;;;;;;4965048;28;20205;-72
2023/03/28 07:57:40;;;;;;;1.70;1.17;;;20.00;52.30;;;;;;4981031;28;20603;-71
2023/03/28 08:00:25;;;;;;;1.75;1.20;;;20.00;52.40;;;;;;4995837;28;20276;-72
2023/03/28 08:03:12;;;;;;;1.95;1.10;;;20.00;52.30;;;;;;5005764;28;20222;-72
2023/03/28 08:05:38;;;;;;;1.45;1.35;;;20.00;52.30;;;;;;4968858;28;20224;-71
2023/03/28 08:08:06;;;;;;;3.35;1.25;;;20.10;52.30;;;;;;5009372;28;20196;-72
2023/03/28 08:10:32;;;;;;;1.13;1.02;;;20.00;52.30;;;;;;4995174;28;20200;-72
2023/03/28 08:12:59;;;;;;;1.00;0.85;;;20.00;52.30;;;;;;4970382;28;20242;-71
2023/03/28 08:15:25;;;;;;;1.35;1.20;;;20.10;52.30;;;;;;4979868;28;20188;-71
2023/03/28 08:17:50;;;;;;;1.10;0.90;;;20.10;52.20;;;;;;4988133;28;20199;-71
2023/03/28 08:20:18;;;;;;;1.50;1.23;;;20.10;52.20;;;;;;4987000;28;20268;-71
2023/03/28 08:23:04;;;;;;;1.27;1.10;;;20.10;52.20;;;;;;4991202;28;20262;-71
2023/03/28 08:25:43;;;;;;;2.10;1.00;;;20.20;52.20;;;;;;4976285;28;20199;-71
2023/03/28 08:28:11;;;;;;;2.05;1.23;;;20.20;52.10;;;;;;4960843;28;20248;-71
2023/03/28 08:30:37;;;;;;;1.10;1.00;;;20.20;52.10;;;;;;4994890;28;20577;-71
2023/03/28 08:33:04;;;;;;;1.98;1.05;;;20.20;52.10;;;;;;4993286;28;20240;-70
2023/03/28 08:35:31;;;;;;;1.20;1.00;;;20.20;52.10;;;;;;4968917;28;20212;-71
2023/03/28 08:38:01;;;;;;;2.20;1.00;;;20.20;52.10;;;;;;4974291;28;20199;-71
2023/03/28 08:40:28;;;;;;;1.17;1.08;;;20.10;52.10;;;;;;4962091;28;20652;-71
2023/03/28 08:43:30;;;;;;;1.33;1.00;;;20.10;52.20;;;;;;4966401;28;20213;-72
2023/03/28 08:45:58;;;;;;;1.33;0.90;;;20.10;52.20;;;;;;4965024;28;20186;-71
2023/03/28 08:48:40;;;;;;;2.45;1.25;;;20.10;52.20;;;;;;5006027;28;20192;-72
2023/03/28 08:51:28;;;;;;;1.33;0.88;;;20.10;52.10;;;;;;4991237;28;20253;-71
2023/03/28 08:54:21;;;;;;;1.00;0.90;;;20.10;52.10;;;;;;4979364;28;20584;-72
2023/03/28 08:56:55;;;;;;;1.58;1.02;;;20.10;52.10;;;;;;4968812;28;20672;-71
2023/03/28 08:59:44;;;;;;;1.25;1.15;;;20.10;52.60;;;;;;4976264;28;20600;-71
2023/03/28 09:02:25;;;;;;;1.13;1.00;;;20.20;52.10;;;;;;4980233;28;20259;-71
2023/03/28 09:04:54;;;;;;;1.55;0.80;;;20.20;52.10;;;;;;4980593;28;20187;-72
2023/03/28 09:07:58;;;;;;;1.10;1.00;;;20.20;52.00;;;;;;4994520;28;20181;-71
2023/03/28 09:10:36;;;;;;;1.13;0.82;;;20.20;52.00;;;;;;4976514;28;20304;-72
2023/03/28 09:13:33;;;;;;;1.08;0.95;;;20.20;52.00;;;;;;4989020;28;20212;-71
2023/03/28 09:16:31;;;;;;;1.20;1.00;;;20.20;52.00;;;;;;4989273;28;20192;-71
2023/03/28 09:19:50;;;;;;;1.42;0.90;;;20.20;52.10;;;;;;4980448;28;20208;-72
2023/03/28 09:23:41;;;;;;;1.40;0.95;;;20.20;52.10;;;;;;4996686;28;20262;-72
2023/03/28 09:26:36;;;;;;;2.05;1.10;;;20.20;52.00;;;;;;4993556;28;20681;-71
2023/03/28 09:29:24;;;;;;;3.15;1.00;;;20.20;52.30;;;;;;4995558;28;20725;-75
2023/03/28 09:32:02;;;;;;;3.05;1.15;;;20.20;52.40;;;;;;4987388;28;20267;-72
2023/03/28 09:34:41;;;;;;;3.03;1.10;;;20.20;52.50;;;;;;4985237;28;20208;-71
2023/03/28 09:37:16;;;;;;;2.97;1.10;;;20.10;52.30;;;;;;4973256;28;20276;-72
2023/03/28 09:39:51;;;;;;;1.48;1.13;;;20.10;52.30;;;;;;4991226;28;20181;-72
2023/03/28 09:42:54;;;;;;;2.40;1.10;;;20.10;52.20;;;;;;4979009;28;20183;-73
2023/03/28 09:46:09;;;;;;;2.17;1.20;;;20.10;52.20;;;;;;4937541;28;20193;-72
2023/03/28 09:48:55;;;;;;;2.22;0.95;;;20.10;52.20;;;;;;4991833;28;20189;-71
2023/03/28 09:51:25;;;;;;;1.90;0.70;;;20.10;52.20;;;;;;4992327;28;20204;-72
2023/03/28 09:53:51;;;;;;;2.30;1.00;;;20.10;52.20;;;;;;4975921;28;20217;-72
2023/03/28 09:56:31;;;;;;;2.40;1.30;;;20.10;52.20;;;;;;4975797;28;20196;-71
2023/03/28 09:59:24;;;;;;;1.73;1.33;;;20.10;52.20;;;;;;4977157;28;20264;-72
2023/03/28 10:01:53;;;;;;;1.63;0.98;;;20.10;52.10;;;;;;4975759;28;20212;-71
2023/03/28 10:04:36;;;;;;;2.33;1.02;;;20.10;52.20;;;;;;4992117;28;20193;-72
2023/03/28 10:07:07;;;;;;;1.30;0.80;;;20.10;52.10;;;;;;4991923;28;20199;-72
2023/03/28 10:09:34;;;;;;;1.10;1.00;;;20.10;52.70;;;;;;4985184;28;20185;-72
2023/03/28 10:12:09;;;;;;;0.95;0.82;;;20.10;52.00;;;;;;4978860;28;20187;-72
2023/03/28 10:14:45;;;;;;;1.20;0.90;;;20.10;52.10;;;;;;4988887;28;20231;-72
2023/03/28 10:17:31;;;;;;;2.95;1.17;;;20.10;52.00;;;;;;4980409;28;20196;-73
2023/03/28 10:20:13;;;;;;;1.85;1.08;;;20.10;52.00;;;;;;4994395;28;20218;-72
2023/03/28 10:22:40;;;;;;;1.33;1.00;;;20.10;52.00;;;;;;4969445;28;20232;-72
2023/03/28 10:25:16;;;;;;;1.25;1.00;;;20.10;51.90;;;;;;4974522;28;20211;-72
2023/03/28 10:27:43;;;;;;;2.15;0.82;;;20.10;52.00;;;;;;4961575;28;20181;-72
2023/03/28 10:30:30;;;;;;;1.75;1.30;;;20.10;52.00;;;;;;4991026;28;20185;-72
2023/03/28 10:33:20;;;;;;;1.73;1.00;;;20.10;51.90;;;;;;5005545;28;20287;-72
2023/03/28 10:36:38;;;;;;;2.08;1.02;;;20.10;51.90;;;;;;4968100;28;20246;-72
2023/03/28 10:39:28;;;;;;;2.50;1.10;;;20.10;52.00;;;;;;4993769;28;20181;-72
2023/03/28 10:42:12;;;;;;;1.50;1.10;;;20.10;52.00;;;;;;4997159;28;20200;-72
2023/03/28 10:45:01;;;;;;;1.58;1.13;;;20.10;51.90;;;;;;4973743;28;20196;-70
2023/03/28 10:47:30;;;;;;;1.75;1.10;;;20.10;51.90;;;;;;4970418;28;20673;-72
2023/03/28 10:50:05;;;;;;;1.20;1.10;;;20.10;52.00;;;;;;5014654;28;20688;-71
2023/03/28 10:52:59;;;;;;;1.42;1.27;;;20.10;51.90;;;;;;4975010;28;20240;-72
2023/03/28 10:56:07;;;;;;;2.25;1.13;;;20.10;52.00;;;;;;4974401;28;20184;-72
2023/03/28 10:59:05;;;;;;;1.30;1.20;;;20.10;51.90;;;;;;4986185;28;20276;-72
2023/03/28 11:02:16;;;;;;;2.55;1.40;;;20.10;51.90;;;;;;5013216;28;20184;-72
2023/03/28 11:05:27;;;;;;;1.48;1.10;;;20.10;51.70;;;;;;4967605;28;20231;-72
2023/03/28 11:08:31;;;;;;;1.30;1.20;;;20.10;51.90;;;;;;4994951;28;20193;-72
2023/03/28 11:11:23;;;;;;;1.58;1.13;;;20.10;51.80;;;;;;4960132;28;20210;-71
2023/03/28 11:14:09;;;;;;;1.40;1.05;;;20.10;51.90;;;;;;4978581;28;20220;-71
2023/03/28 11:17:11;;;;;;;1.15;1.05;;;20.10;51.90;;;;;;4994568;28;20199;-72
2023/03/28 11:20:23;;;;;;;1.80;1.20;;;20.10;51.90;;;;;;4978710;28;20212;-72
2023/03/28 11:23:23;;;;;;;1.38;1.00;;;20.10;51.90;;;;;;5010441;28;20212;-72
2023/03/28 11:26:32;;;;;;;1.50;1.20;;;20.10;51.90;;;;;;4994677;28;20185;-72
2023/03/28 11:29:19;;;;;;;2.20;1.05;;;20.10;51.80;;;;;;5014018;28;20196;-73
2023/03/28 11:32:12;;;;;;;2.80;1.10;;;20.10;51.60;;;;;;4995302;28;20251;-72
2023/03/28 11:35:02;;;;;;;2.15;1.17;;;20.10;51.80;;;;;;4977811;28;20297;-72
2023/03/28 11:38:15;;;;;;;1.65;1.10;;;20.10;51.80;;;;;;5010701;28;20161;-72
2023/03/28 11:41:02;;;;;;;1.33;1.20;;;20.10;51.80;;;;;;4978705;28;20328;-72
2023/03/28 11:43:57;;;;;;;1.15;0.90;;;20.10;51.80;;;;;;5010678;28;20296;-72
2023/03/28 11:46:39;;;;;;;1.75;1.30;;;20.10;51.80;;;;;;4981515;28;20282;-72
2023/03/28 11:49:16;;;;;;;1.20;1.00;;;20.10;51.80;;;;;;4981306;28;20279;-71
2023/03/28 11:52:19;;;;;;;1.55;1.05;;;20.10;51.60;;;;;;4997195;28;20188;-71
2023/03/28 11:55:01;;;;;;;1.73;1.00;;;20.10;51.70;;;;;;4997722;23;20236;-71
2023/03/28 11:58:26;;;;;;;1.10;0.95;;;20.10;51.70;;;;;;4958152;28;20197;-73
2023/03/28 12:01:31;;;;;;;1.60;1.20;;;20.10;51.50;;;;;;4969737;28;20238;-71
2023/03/28 12:05:00;;;;;;;1.10;1.00;;;20.10;51.40;;;;;;4932861;28;20201;-69
2023/03/28 12:07:49;;;;;;;2.08;1.10;;;20.10;51.50;;;;;;4940164;28;20255;-67
2023/03/28 12:10:35;;;;;;;1.85;1.17;;;20.10;51.40;;;;;;4977867;28;20612;-68
2023/03/28 12:13:19;;;;;;;1.23;1.08;;;20.10;51.40;;;;;;4961808;28;20180;-69
2023/03/28 12:16:13;;;;;;;1.88;0.90;;;20.10;51.40;;;;;;4977551;28;20232;-70
2023/03/28 12:18:58;;;;;;;1.85;1.15;;;20.10;51.40;;;;;;4967873;28;20197;-69
2023/03/28 12:21:57;;;;;;;1.30;1.10;;;20.10;51.40;;;;;;4955294;28;20308;-70
2023/03/28 12:24:45;;;;;;;1.10;0.98;;;20.10;51.40;;;;;;4977271;28;20225;-69
2023/03/28 12:27:41;;;;;;;1.30;1.10;;;20.10;51.40;;;;;;4958944;28;20182;-70
2023/03/28 12:30:39;;;;;;;1.20;1.10;;;20.10;51.40;;;;;;4974080;28;20225;-70
2023/03/28 12:33:24;;;;;;;1.52;1.05;;;20.10;51.40;;;;;;4971954;28;20222;-69
2023/03/28 12:36:16;;;;;;;1.42;1.25;;;20.10;51.40;;;;;;4957845;28;20210;-68
2023/03/28 12:39:23;;;;;;;1.80;1.13;;;20.10;51.40;;;;;;4965715;28;20692;-69
2023/03/28 12:41:52;;;;;;;0.93;0.80;;;20.10;51.40;;;;;;4960490;28;20169;-70
2023/03/28 12:44:37;;;;;;;0.90;0.90;;;20.10;51.40;;;;;;4951243;28;20293;-71
2023/03/28 12:47:12;;;;;;;1.48;1.00;;;20.10;51.40;;;;;;4954479;29;20228;-71
2023/03/28 12:49:47;;;;;;;1.27;1.17;;;20.10;51.40;;;;;;4954254;29;20186;-70
2023/03/28 12:52:29;;;;;;;1.67;1.25;;;20.10;51.40;;;;;;4938423;29;20186;-71
2023/03/28 12:55:00;;;;;;;1.25;1.15;;;20.10;51.40;;;;;;4953839;29;20214;-70
2023/03/28 12:57:41;;;;;;;1.33;1.23;;;20.10;51.40;;;;;;4954391;29;20277;-70
2023/03/28 13:00:46;;;;;;;1.27;1.17;;;20.10;51.40;;;;;;4959020;28;20185;-69
2023/03/28 13:03:52;;;;;;;1.65;1.10;;;20.10;51.40;;;;;;4976097;28;20195;-71
2023/03/28 13:06:43;;;;;;;1.45;1.23;;;20.10;51.40;;;;;;4973035;28;20275;-70
2023/03/28 13:09:53;;;;;;;1.42;1.30;;;20.10;51.40;;;;;;4973477;28;20202;-71
2023/03/28 13:13:05;;;;;;;1.83;1.30;;;20.10;51.40;;;;;;4970213;28;20182;-70
2023/03/28 13:15:32;;;;;;;1.00;0.90;;;20.10;51.40;;;;;;4957271;28;20232;-70
2023/03/28 13:18:20;;;;;;;1.52;1.10;;;20.10;51.20;;;;;;4957176;28;20217;-69
2023/03/28 13:20:51;;;;;;;1.00;0.98;;;20.10;51.20;;;;;;4950667;28;20201;-70
2023/03/28 13:23:28;;;;;;;1.08;1.05;;;20.10;51.40;;;;;;4976178;28;20181;-70
2023/03/28 13:26:01;;;;;;;1.33;1.13;;;20.10;51.40;;;;;;4976099;28;20223;-69
2023/03/28 13:28:42;;;;;;;1.13;1.02;;;20.10;51.40;;;;;;4993534;28;20169;-70
2023/03/28 13:31:18;;;;;;;1.75;0.93;;;20.10;51.40;;;;;;4960117;28;20232;-69
2023/03/28 13:34:02;;;;;;;1.92;1.10;;;20.10;51.40;;;;;;4975759;28;20212;-70
2023/03/28 13:36:32;;;;;;;2.28;1.30;;;20.10;51.40;;;;;;4976222;28;20197;-70
2023/03/28 13:39:24;;;;;;;1.27;1.10;;;20.10;51.40;;;;;;4959796;28;20185;-70
2023/03/28 13:41:51;;;;;;;1.33;1.10;;;20.10;51.40;;;;;;4993644;28;20192;-70
2023/03/28 13:44:43;;;;;;;1.10;1.00;;;20.10;51.40;;;;;;4979322;28;20232;-70
2023/03/28 13:47:25;;;;;;;1.65;1.40;;;20.10;51.40;;;;;;4956959;28;20189;-70
2023/03/28 13:50:27;;;;;;;2.22;1.20;;;20.10;51.40;;;;;;4964440;28;20203;-71
2023/03/28 13:52:53;;;;;;;1.23;1.00;;;20.10;51.40;;;;;;4984008;28;20262;-70
2023/03/28 13:55:20;;;;;;;1.67;1.17;;;20.10;51.40;;;;;;4959077;28;20288;-70